Aérodrome :
LOGIN :

S'inscrire | Disclaimer

   EN    FR    IT 

 










Légende :    VFR   VFR Marginal   IFR   IFR Intensif   IFR Très Intensif
Visi : 
Plafond : 
>= 8 km
>= 3000ft
5 à 8 km
1000 à 3000 ft
1500m à 5 km
500 à 1000 ft
800 à 1500m
200 à 500 ft
< 800m
< 200 ft
Symboles :   Orages  Brouillard  Fortes neiges  Fortes précipitations  Vent > 20 kt
SIGMETs :   Divers  Orages  Givrage  Turbulence  Onde Orograph.  Cendres Volcan.







- Altitude de l'aérodrome : 392 ft
- Code IATA : CDG
- Voir les cartes d'approche


LFPG - Paris-Aeroport Charles De Gaulle

DERNIER METAR :
  • 171700Z 21011KT 9999 FEW020 FEW027TCU BKN032 23/18 Q1016 NOSIG

METARs EXPIRÉS :
  • 171630Z 24010KT 210V270 9999 FEW029TCU BKN031 23/18 Q1016 NOSIG
  • 171600Z 25007KT 220V290 9999 FEW029TCU BKN030 24/18 Q1016 NOSIG
  • 171530Z 22010KT 9999 -SHRA FEW022 BKN026 23/18 Q1016 NOSIG
  • 171500Z 22011KT 9999 FEW022 BKN026 23/18 Q1016 NOSIG
  • 171430Z 21012KT 9999 SCT022 BKN034 22/18 Q1016 NOSIG

TAF AMD TAF LFPG
Valide du 17 à 12h jusqu'au 18 à 18h UTC


171259Z 1712/1818 22010KT 9999 BKN020
TEMPO 1714/1721 4000 -RA BKN010
PROB40
TEMPO 1715/1719 2500 RA BKN006 SCT015TCU
TEMPO 1804/1809 3000 -RA BKN008
PROB30
TEMPO 1805/1808 1000 +RA BKN006
BECMG 1812/1814 SCT020TCU
TEMPO 1815/1817 26010G25KT TX22/1716Z TN18/1805Z
ATIS : +33 1 48 62 10 92
Pas de NOTAMs connus pour ce terrain.



MET'MAP, la Météo Aéronautique d'un coup d'oeil ! - Copyright ORBIFLY Décembre 2007 - Disclaimer

ORBIFLY MET'MAP TEAM :

Programmation & Développement : Alexandra Zaïnal
Conception & Développement : Baudouin d'Aumeries
Co-Programmation & Développement : Marc-Olivier Méhu
Soutien technique & logistique : Manuel Goepfert

Contact : metmap@orbifly.com




SOURCES & CREDITS :

   NOAA